< < Back
Terminal Aerodrome Forecast


Current Version              Previous Versions:   1  2  3  4  5  6  7  8  9  

Terminal Aerodrome Forecast

795
FTUS42 KCAE 280531
TAFAGS
TAF
KAGS 280531Z 2806/2906 VRB03KT P6SM SCT050
      TEMPO 2806/2810 3SM BR
     FM281400 05006KT P6SM BKN040
     FM290000 04005KT P6SM VCSH BKN035=

Latest METAR

849
SAUS70 KWBC 281200 RRF
MTRAGS
METAR KAGS 281153Z 35003KT 10SM CLR 19/17 A3013 RMK AO2 SLP201 T01890172
10189 20139 53013


USA.gov is the U.S. government's official web portal to all federal, state and local government web resources and services.